Date,TemperatureHighF,TemperatureAvgF,TemperatureLowF,DewpointHighF,DewpointAvgF,DewpointLowF,HumidityHigh,HumidityAvg,HumidityLow,PressureMaxIn,PressureMinIn,WindSpeedMaxMPH,WindSpeedAvgMPH,GustSpeedMaxMPH,PrecipitationSumIn
2013-1-1,45,34,26,31,24,17,98,71,33,30.51,30.35,17,2,20,0.01
2013-1-2,49,39,30,29,23,17,79,53,32,30.35,30.17,18,2,18,0.00
2013-1-3,50,37,30,30,25,18,84,64,30,30.35,30.14,9,1,10,0.00
2013-1-4,44,34,27,34,30,25,95,85,66,30.37,30.23,5,0,6,0.00
2013-1-5,43,36,32,36,33,29,97,89,73,30.25,30.17,6,0,6,0.06
2013-1-6,39,36,33,38,34,32,98,96,90,30.29,30.19,4,0,4,0.00
2013-1-7,40,38,35,39,37,34,99,97,93,30.34,30.25,4,0,4,0.04
2013-1-8,49,39,36,45,38,35,99,97,85,30.37,30.10,8,0,8,0.00
2013-1-9,45,36,32,40,33,28,99,90,76,30.10,29.93,16,2,16,0.11
2013-1-10,33,31,29,31,29,27,98,93,82,30.22,30.02,13,1,16,0.00
2013-1-11,35,30,22,30,26,19,93,83,73,30.32,30.19,15,2,17,0.02
2013-1-12,30,22,16,24,19,14,94,88,75,30.43,30.31,6,0,7,0.00
2013-1-13,29,20,15,22,17,13,94,88,74,30.53,30.42,5,0,5,0.00
2013-1-14,35,23,15,25,20,14,95,88,63,30.63,30.52,5,0,5,0.00
2013-1-15,40,27,21,30,24,19,96,87,64,30.70,30.61,3,0,4,0.00
2013-1-16,33,28,24,29,26,23,97,93,83,30.71,30.63,2,0,2,0.01
2013-1-17,46,37,26,34,27,23,94,69,52,30.52,30.35,2,0,4,0.03
2013-1-18,48,37,28,33,26,17,85,65,38,30.37,30.28,3,0,3,0.01
2013-1-19,49,38,30,32,24,17,71,56,39,30.37,30.28,4,0,5,0.00
2013-1-20,47,35,26,31,24,19,80,63,51,30.38,30.27,4,0,4,0.00
2013-1-21,48,36,27,31,24,20,77,62,44,30.33,30.18,4,0,4,0.00
2013-1-22,55,41,29,34,24,13,78,56,20,30.21,29.97,13,1,17,0.00
2013-1-23,55,50,43,43,32,15,96,56,22,30.11,29.86,28,5,28,0.02
2013-1-24,51,44,39,46,42,38,98,94,82,30.22,30.10,8,0,9,0.00
2013-1-25,49,44,42,48,43,40,99,97,90,30.22,29.99,5,0,6,0.25
2013-1-26,44,37,32,44,35,31,99,92,81,30.14,30.00,12,1,13,0.20
2013-1-27,40,34,32,34,32,31,97,91,72,30.25,30.14,5,0,5,0.06
2013-1-28,40,37,32,37,35,31,98,92,84,30.36,30.18,9,2,11,0.11
2013-1-29,43,38,34,38,36,32,96,90,81,30.54,30.35,9,1,10,0.01
2013-1-30,41,37,35,37,35,33,97,92,84,30.61,30.49,6,0,6,0.00
2013-1-31,38,35,33,36,34,32,96,94,90,30.49,30.39,4,0,4,0.00
2013-2-1,43,34,30,38,32,29,98,94,80,30.41,30.28,5,0,5,0.00
2013-2-2,46,34,27,40,32,26,98,94,77,30.40,30.33,4,0,4,0.01
2013-2-3,44,34,26,38,32,25,98,93,77,30.40,30.28,3,0,3,0.00
2013-2-4,45,37,30,39,34,29,98,90,77,30.30,30.03,5,0,5,0.00
2013-2-5,43,38,32,41,36,30,97,94,79,30.19,30.04,11,0,12,0.09
2013-2-6,48,38,30,40,34,28,98,84,59,30.21,29.98,8,1,10,0.01
2013-2-7,43,36,32,36,32,28,98,88,58,30.08,29.98,11,1,11,0.20
2013-2-8,40,35,31,34,30,26,98,86,66,30.27,30.07,10,1,11,0.05
2013-2-9,44,37,30,33,29,25,87,74,59,30.29,30.23,11,1,12,0.00
2013-2-10,48,37,29,37,32,27,95,83,61,30.32,30.22,9,1,9,0.00
2013-2-11,36,32,27,33,30,26,97,93,88,30.49,30.29,5,0,6,0.00
2013-2-12,50,38,30,39,34,29,98,87,62,30.58,30.49,13,1,13,0.00
2013-2-13,53,42,32,40,36,30,95,81,58,30.53,30.43,11,1,11,0.00
2013-2-14,54,45,39,43,38,33,89,75,59,30.53,30.40,8,1,9,0.00
2013-2-15,67,50,35,37,33,28,91,56,24,30.42,30.23,19,2,19,0.00
2013-2-16,57,45,35,38,33,29,87,65,43,30.28,30.14,13,2,13,0.00
2013-2-17,47,38,28,32,29,25,91,71,47,30.25,30.06,10,1,10,0.00
2013-2-18,43,35,28,34,29,23,92,79,66,30.07,29.82,12,1,12,0.00
2013-2-19,39,35,31,33,30,26,95,82,68,30.01,29.66,10,1,12,0.09
2013-2-20,45,38,32,33,30,27,96,77,51,30.15,30.01,9,1,10,0.00
2013-2-21,42,36,31,34,32,29,96,85,66,30.31,30.15,10,1,11,0.17
2013-2-22,50,38,30,40,34,28,97,86,58,30.33,30.08,18,1,18,0.17
2013-2-23,40,35,31,34,30,28,96,84,68,30.47,30.19,11,2,12,0.02
2013-2-24,47,35,25,36,30,23,92,82,62,30.49,30.25,9,1,10,0.00
2013-2-25,46,39,33,38,32,23,97,77,43,30.42,30.24,20,2,20,0.04
2013-2-26,52,37,26,33,28,18,90,70,29,30.42,30.27,12,1,13,0.00
2013-2-27,54,41,30,37,31,24,84,68,44,30.40,30.32,13,1,13,0.00
2013-2-28,52,46,41,46,42,36,95,89,75,30.54,30.33,5,0,6,0.01
2013-3-1,61,49,39,48,44,38,97,82,56,30.54,30.30,11,1,13,0.00
2013-3-2,53,46,39,46,42,37,95,87,75,30.30,30.17,9,1,10,0.22
2013-3-3,53,44,34,42,38,31,97,83,57,30.18,30.08,8,1,8,0.01
2013-3-4,57,41,28,42,35,27,97,81,55,30.14,29.95,11,1,12,0.00
2013-3-5,50,42,37,38,35,30,90,79,47,29.95,29.59,18,2,18,0.02
2013-3-6,49,41,32,37,32,23,92,72,41,30.00,29.53,12,2,13,0.03
2013-3-7,50,36,27,35,29,24,93,77,38,30.04,29.95,8,1,8,0.00
2013-3-8,51,38,27,35,28,15,95,69,25,30.21,29.99,12,2,13,0.00
2013-3-9,56,41,29,35,28,13,92,65,20,30.51,30.21,12,2,14,0.00
2013-3-10,60,44,31,38,30,23,84,62,27,30.53,30.39,8,1,10,0.00
2013-3-11,61,47,36,44,37,31,90,69,44,30.42,30.21,11,1,12,0.00
2013-3-12,62,49,37,48,41,36,98,77,48,30.25,30.14,9,1,10,0.00
2013-3-13,63,50,40,48,42,36,92,75,54,30.23,30.11,8,1,9,0.00
2013-3-14,62,52,42,49,42,35,95,71,55,30.22,30.09,14,1,14,0.00
2013-3-15,62,50,39,45,39,35,88,67,44,30.23,30.12,11,2,13,0.00
2013-3-16,55,46,40,45,41,38,97,83,63,30.18,30.09,14,2,20,0.00
2013-3-17,49,40,32,38,34,29,96,79,53,30.29,30.17,15,2,15,0.00
2013-3-18,55,41,26,39,33,26,100,75,46,30.27,30.10,12,1,12,0.00
2013-3-19,60,49,41,46,40,33,84,70,48,30.11,29.81,18,1,18,0.00
2013-3-20,58,46,34,47,40,29,94,80,56,30.19,29.75,18,4,21,0.02
2013-3-21,46,38,33,33,29,23,98,72,46,30.34,30.19,13,2,13,0.00
2013-3-22,44,36,27,30,25,22,89,65,44,30.38,30.31,12,2,14,0.00
2013-3-23,51,37,23,31,25,21,94,67,32,30.38,30.22,14,2,14,0.00
2013-3-24,58,43,30,38,32,26,87,67,43,30.25,30.03,10,1,10,0.00
2013-3-25,60,47,36,44,39,33,99,75,52,30.03,29.86,12,1,12,0.08
2013-3-26,55,46,40,46,42,40,100,88,68,29.98,29.92,7,1,8,0.03
2013-3-27,58,48,39,49,44,38,100,87,68,29.98,29.89,11,2,13,0.05
2013-3-28,56,49,45,52,47,45,100,93,76,30.12,29.97,11,1,11,0.02
2013-3-29,68,53,41,53,46,41,100,81,42,30.18,30.06,10,1,10,0.00
2013-3-30,72,57,41,53,46,40,97,71,42,30.11,29.91,11,1,12,0.00
2013-3-31,58,52,48,52,49,47,100,90,73,30.01,29.93,8,1,9,0.29
2013-4-1,56,48,43,50,46,43,100,93,73,30.19,30.00,10,1,10,0.81
2013-4-2,63,52,45,51,46,44,100,81,56,30.20,30.10,13,1,13,0.00
2013-4-3,64,53,41,54,48,41,100,85,65,30.14,29.88,8,1,9,0.00
2013-4-4,64,55,45,50,45,39,99,69,53,29.95,29.75,17,3,19,0.10
2013-4-5,56,48,41,50,46,41,100,90,64,30.03,29.96,5,0,6,0.06
2013-4-6,55,48,42,49,44,38,100,89,58,30.06,29.92,11,1,11,0.06
2013-4-7,51,44,33,44,40,33,100,87,68,29.97,29.84,18,3,18,0.80
2013-4-8,49,40,33,38,35,30,98,81,59,30.29,29.97,15,3,15,0.02
2013-4-9,62,46,34,44,36,21,100,73,23,30.37,30.27,11,1,15,0.00
2013-4-10,46,44,41,41,40,39,92,88,81,30.32,30.30,3,0,3,0.00
2013-4-11,58,49,40,44,40,36,96,74,49,30.28,30.07,11,2,14,0.00
2013-4-12,65,49,34,48,39,34,100,74,37,30.10,29.87,13,2,14,0.00
2013-4-13,52,45,39,40,35,30,87,67,46,30.08,29.93,15,5,17,0.00
2013-4-14,47,40,30,35,32,28,96,74,51,30.09,29.89,11,2,11,0.05
2013-4-15,43,37,33,38,34,31,100,88,67,30.18,29.94,12,2,14,0.13
2013-4-16,50,40,35,40,34,32,93,79,53,30.39,30.18,15,3,15,0.03
2013-4-17,56,44,32,39,34,27,99,69,38,30.47,30.38,12,2,14,0.00
2013-4-18,63,48,33,44,39,31,95,71,48,30.46,30.31,14,2,15,0.00
2013-4-19,62,51,42,50,43,38,95,76,49,30.35,30.21,16,2,18,0.00
2013-4-20,65,52,37,46,39,29,99,67,27,30.32,30.16,12,2,13,0.00
2013-4-21,66,52,37,47,41,35,96,70,37,30.27,30.16,12,2,12,0.00
2013-4-22,69,54,41,49,39,25,100,64,22,30.23,30.10,10,1,10,0.00
2013-4-23,70,56,41,36,28,21,50,34,19,30.23,29.99,16,3,16,0.00
2013-4-24,75,59,42,36,28,23,56,33,16,30.09,29.90,26,3,28,0.00
2013-4-25,75,59,42,43,36,26,67,44,17,30.12,29.95,12,2,12,0.00
2013-4-26,79,62,45,51,42,37,86,52,25,30.20,30.11,12,2,12,0.00
2013-4-27,78,63,47,49,42,36,76,48,25,30.23,30.08,13,2,13,0.00
2013-4-28,70,58,43,44,40,34,80,52,35,30.20,30.07,13,2,13,0.00
2013-4-29,64,55,44,50,43,35,84,66,43,30.15,29.99,14,2,16,0.00
2013-4-30,60,48,38,37,32,26,85,59,29,30.32,30.06,13,3,13,0.00
2013-5-1,74,52,31,38,30,20,87,50,19,30.40,30.29,14,2,20,0.00
2013-5-2,80,66,54,41,28,17,49,24,16,30.34,30.09,22,4,22,0.00
2013-5-3,80,63,47,48,40,34,76,45,22,30.18,29.96,11,2,12,0.00
2013-5-4,78,65,50,43,35,28,67,36,17,30.03,29.68,18,3,21,0.00
2013-5-5,80,60,48,56,43,37,87,57,26,29.75,29.57,18,2,22,0.18
2013-5-6,68,56,46,56,50,44,100,83,53,29.91,29.74,12,1,12,0.11
2013-5-7,64,57,51,57,54,51,100,90,75,29.99,29.90,9,1,11,0.00
2013-5-8,72,59,50,58,54,50,100,85,56,30.09,29.97,15,1,16,0.17
2013-5-9,80,62,48,62,54,48,100,77,42,30.13,30.01,8,1,9,0.00
2013-5-10,84,68,53,63,57,51,95,69,40,30.15,30.02,10,2,12,0.00
2013-5-11,85,70,56,66,58,47,95,67,45,30.15,29.95,11,1,11,0.00
2013-5-12,82,64,54,58,51,45,81,63,42,30.07,29.95,10,1,12,0.00
2013-5-13,72,63,49,54,46,40,77,56,40,30.11,30.01,14,2,14,0.00
2013-5-14,71,57,42,52,45,40,99,67,36,30.11,29.98,15,2,15,0.00
2013-5-15,67,55,44,52,46,40,91,74,55,30.05,29.98,13,1,15,0.00
2013-5-16,59,53,48,54,47,42,97,80,66,30.01,29.90,11,2,12,0.05
2013-5-17,62,53,45,45,42,40,93,69,47,30.08,29.98,11,1,12,0.00
2013-5-18,62,54,47,51,46,42,87,74,62,30.28,30.08,12,2,13,0.00
2013-5-19,50,48,46,43,42,42,86,82,77,30.32,30.28,10,1,11,0.00
2013-5-20,77,65,42,52,44,31,100,51,24,30.25,29.90,10,2,10,0.00
2013-5-21,62,48,34,45,36,29,100,65,38,30.09,29.80,18,2,22,0.11
2013-5-22,52,41,30,45,36,30,100,86,54,30.11,30.04,12,1,12,0.28
2013-5-23,58,46,37,42,39,36,100,76,47,30.08,30.02,9,1,12,0.02
2013-5-24,57,43,39,42,38,36,92,84,57,30.09,30.03,6,0,7,0.00
2013-5-25,69,58,36,44,42,36,98,58,38,30.07,29.92,9,2,10,0.00
2013-5-26,63,52,47,53,47,43,100,84,57,30.05,29.97,8,1,9,0.01
2013-5-27,62,53,46,57,50,44,100,92,75,30.02,29.82,7,0,8,0.32
2013-5-28,69,57,47,54,49,44,100,79,49,29.95,29.76,10,1,10,0.02
2013-5-29,67,55,47,51,45,39,100,72,44,30.04,29.76,18,2,18,0.02
2013-5-30,66,54,44,46,42,39,87,67,39,30.19,30.03,14,2,14,0.00
2013-5-31,74,56,37,50,42,33,99,64,24,30.26,30.12,11,2,11,0.00
2013-6-1,78,66,46,50,44,33,87,49,24,30.18,29.92,11,2,15,0.00
2013-6-2,75,62,48,56,50,46,96,68,40,29.95,29.84,13,2,13,0.00
2013-6-3,81,60,45,57,48,38,98,71,22,29.98,29.86,10,2,11,0.00
2013-6-4,87,70,51,58,50,42,87,53,25,29.97,29.84,10,1,11,0.00
2013-6-5,88,71,54,57,48,40,72,46,27,30.00,29.84,11,1,13,0.00
2013-6-6,88,72,56,60,54,48,82,57,33,29.93,29.82,11,2,11,0.00
2013-6-7,86,71,56,61,56,49,93,62,34,30.01,29.90,11,2,12,0.00
2013-6-8,88,61,54,59,52,48,88,74,26,29.98,29.88,5,0,9,0.00
2013-6-9,86,69,56,54,46,35,72,45,29,29.92,29.73,6,2,13,0.00
2013-6-10,78,63,48,50,43,35,75,50,30,29.85,29.72,14,2,14,0.00
2013-6-11,63,54,45,48,44,39,92,71,54,30.09,29.85,10,2,10,0.00
2013-6-12,66,54,40,45,40,38,93,63,39,30.15,30.06,13,2,13,0.00
2013-6-13,66,55,44,46,42,39,84,63,43,30.25,30.15,14,2,14,0.00
2013-6-14,77,59,40,48,43,38,96,60,28,30.23,29.90,11,2,11,0.00
2013-6-15,81,65,49,51,46,42,80,54,30,29.95,29.82,13,2,14,0.00
2013-6-16,79,64,50,53,49,45,89,59,37,30.06,29.94,11,2,12,0.00
2013-6-17,77,62,48,52,48,43,86,63,40,30.06,29.89,11,2,13,0.00
2013-6-18,66,58,52,49,45,40,88,63,42,29.97,29.88,13,3,14,0.03
2013-6-19,59,52,45,52,46,41,97,80,64,30.12,29.98,11,1,13,0.06
2013-6-20,67,56,44,49,46,42,100,70,46,30.12,30.02,13,2,14,0.00
2013-6-21,73,59,42,51,43,33,97,60,25,30.13,30.01,15,2,15,0.00
2013-6-22,80,64,46,50,45,41,85,53,28,30.07,29.82,11,1,11,0.00
2013-6-23,76,64,57,60,51,45,78,64,46,29.82,29.60,9,1,10,0.00
2013-6-24,60,55,49,58,52,49,100,90,74,29.73,29.64,8,1,9,0.08
2013-6-25,71,60,53,58,53,49,94,76,51,29.88,29.71,11,1,12,0.01
2013-6-26,66,57,52,63,56,51,100,95,82,30.02,29.85,6,0,6,0.15
2013-6-27,84,66,53,65,59,53,100,80,47,30.09,30.02,10,2,13,0.00
2013-6-28,93,74,58,67,60,56,96,67,32,30.08,29.91,9,2,12,0.00
2013-6-29,90,79,60,64,58,53,88,52,29,30.01,29.85,11,2,12,0.00
2013-6-30,95,78,61,64,59,54,78,54,31,29.90,29.73,13,2,13,0.00
2013-7-1,95,79,63,68,64,58,89,62,32,29.91,29.81,9,2,11,0.00
2013-7-2,97,81,67,70,65,60,86,60,31,29.93,29.84,14,2,14,0.00
2013-7-3,96,83,69,68,59,45,82,45,35,29.94,29.82,12,2,15,0.00
2013-7-4,85,72,60,57,48,41,73,44,23,29.93,29.78,17,2,17,0.00
2013-7-5,81,67,54,55,50,45,84,58,33,29.89,29.75,12,2,12,0.00
2013-7-6,86,68,51,55,49,45,82,54,31,29.84,29.69,10,2,13,0.00
2013-7-7,87,71,54,57,52,46,80,53,35,29.84,29.71,14,2,14,0.00
2013-7-8,91,67,55,60,54,50,87,65,31,29.91,29.82,10,1,12,0.00
2013-7-9,96,81,59,58,54,48,74,42,21,29.96,29.83,12,2,12,0.00
2013-7-10,94,76,61,60,55,52,78,51,26,29.93,29.72,11,2,13,0.00
2013-7-11,85,72,59,60,54,45,84,55,29,29.85,29.75,11,2,13,0.00
2013-7-12,82,67,52,53,47,41,78,51,25,29.95,29.83,14,2,15,0.00
2013-7-13,86,74,51,53,50,45,80,44,32,29.98,29.86,12,2,12,0.00
2013-7-14,93,74,56,56,50,46,72,46,24,29.97,29.79,12,2,14,0.00
2013-7-15,95,76,59,57,51,44,67,44,23,29.86,29.61,8,2,11,0.00
2013-7-16,90,78,63,54,47,37,56,35,27,29.93,29.68,14,2,14,0.00
2013-7-17,91,73,54,52,44,34,57,38,20,30.03,29.92,11,2,11,0.00
2013-7-18,94,74,58,58,52,45,79,50,23,30.05,29.88,13,2,15,0.00
2013-7-19,93,77,57,56,50,44,66,42,25,29.99,29.82,12,2,12,0.00
2013-7-20,95,76,58,58,52,45,70,45,22,29.91,29.72,10,2,12,0.00
2013-7-21,97,76,59,60,51,40,71,44,23,29.82,29.69,9,2,13,0.00
2013-7-22,96,77,58,56,47,40,60,36,18,29.88,29.76,14,2,14,0.00
2013-7-23,92,76,61,53,48,40,58,38,23,29.91,29.84,11,1,13,0.00
2013-7-24,94,80,69,59,53,50,58,41,25,29.91,29.83,10,1,12,0.00
2013-7-25,100,82,65,59,54,48,60,40,22,29.93,29.78,12,2,13,0.00
2013-7-26,98,82,66,56,48,33,55,33,18,29.97,29.85,15,2,17,0.00
2013-7-27,92,75,60,52,42,33,54,33,18,29.98,29.78,13,2,13,0.00
2013-7-28,86,69,52,49,41,28,67,38,15,29.90,29.76,15,2,15,0.00
2013-7-29,84,68,54,52,44,39,64,44,25,29.95,29.81,10,2,14,0.00
2013-7-30,84,72,56,53,48,41,63,45,30,30.02,29.95,10,2,11,0.00
2013-7-31,81,70,61,56,53,50,74,57,37,30.01,29.88,10,2,12,0.00
2013-8-1,69,60,52,53,51,46,90,74,56,30.07,29.94,16,2,16,0.00
2013-8-2,80,70,45,53,48,44,96,48,29,30.09,29.94,10,2,11,0.00
2013-8-3,88,69,52,55,49,44,83,53,23,30.01,29.84,12,2,15,0.00
2013-8-4,91,73,56,55,50,46,72,46,24,29.93,29.78,12,2,12,0.00
2013-8-5,90,82,61,57,52,48,65,37,27,29.90,29.78,10,2,13,0.00
2013-8-6,92,76,61,58,53,49,72,47,25,29.89,29.76,12,2,12,0.00
2013-8-7,86,72,61,59,55,51,76,58,36,29.93,29.82,13,2,14,0.00
2013-8-8,78,66,52,58,54,50,92,68,45,29.94,29.82,7,1,10,0.00
2013-8-9,81,68,55,60,55,49,88,63,40,29.90,29.79,15,1,17,0.00
2013-8-10,80,65,54,60,52,47,85,66,33,30.01,29.88,15,1,17,0.00
2013-8-11,82,64,49,58,52,48,99,69,39,30.03,29.89,13,2,14,0.00
2013-8-12,85,69,54,59,54,51,91,62,34,29.97,29.87,13,2,13,0.00
2013-8-13,89,71,55,59,54,48,87,58,34,30.00,29.84,11,2,15,0.00
2013-8-14,87,68,57,54,50,47,70,55,30,29.93,29.82,11,1,12,0.00
2013-8-15,87,72,56,58,53,47,73,53,34,29.90,29.81,6,1,11,0.00
2013-8-16,88,74,59,62,58,52,85,59,38,29.93,29.85,13,2,14,0.00
2013-8-17,87,72,59,60,57,54,88,61,34,29.97,29.86,13,2,14,0.00
2013-8-18,85,68,56,62,57,53,92,71,36,30.01,29.88,11,1,11,0.00
2013-8-19,92,82,68,55,53,50,58,39,24,29.91,29.84,10,2,11,0.00
2013-8-20,88,74,57,60,54,48,84,54,31,29.94,29.78,12,1,12,0.00
2013-8-21,87,76,61,55,51,48,64,44,30,29.86,29.73,9,1,9,0.00
2013-8-22,79,66,55,58,52,49,87,63,37,29.89,29.78,10,1,10,0.04
2013-8-23,83,66,50,58,54,47,97,67,39,29.90,29.76,11,2,11,0.00
2013-8-24,82,66,51,56,53,49,93,64,36,29.83,29.72,12,2,13,0.00
2013-8-25,69,62,56,63,58,52,100,87,67,29.89,29.81,7,1,8,0.58
2013-8-26,79,65,54,61,55,50,100,75,41,29.92,29.87,10,1,13,0.00
2013-8-27,84,66,50,56,52,48,95,65,38,29.92,29.72,4,1,12,0.00
2013-8-28,84,68,53,58,53,47,83,60,38,29.85,29.75,4,1,12,0.00
2013-8-29,84,67,58,59,56,54,85,71,39,30.04,29.82,9,1,11,0.00
2013-8-30,84,69,54,62,57,53,98,69,42,30.08,29.91,11,2,11,0.00
2013-8-31,64,61,59,56,55,55,86,81,75,29.96,29.94,2,0,2,0.00
2013-9-1,83,68,55,56,52,49,80,59,38,29.84,29.72,12,2,12,0.00
2013-9-2,79,65,53,58,54,51,95,69,45,29.89,29.78,15,2,15,0.00
2013-9-3,80,64,51,55,51,47,87,65,40,29.95,29.86,12,2,12,0.00
2013-9-4,75,63,50,57,53,48,93,71,51,29.99,29.92,14,2,15,0.00
2013-9-5,68,59,53,57,54,52,99,84,60,30.10,29.93,15,1,15,0.24
2013-9-6,75,58,49,56,52,48,100,84,40,30.19,30.03,13,1,13,0.00
2013-9-7,85,66,50,57,51,48,96,61,28,30.03,29.84,8,1,11,0.00
2013-9-8,87,70,55,57,52,46,78,55,25,29.96,29.83,12,1,12,0.00
2013-9-9,90,72,54,58,53,43,89,56,20,29.93,29.75,7,1,11,0.00
2013-9-10,96,75,57,59,50,42,76,48,17,29.81,29.67,10,1,10,0.00
2013-9-11,96,76,61,54,48,44,56,39,18,29.83,29.74,10,2,10,0.00
2013-9-12,92,79,61,58,54,52,74,46,28,29.89,29.76,10,2,11,0.00
2013-9-13,91,77,60,58,52,49,72,44,26,29.85,29.67,11,2,12,0.00
2013-9-14,91,74,58,58,52,48,72,50,26,29.74,29.57,11,1,12,0.00
2013-9-15,80,68,56,57,51,48,76,57,35,29.84,29.62,13,2,13,0.00
2013-9-16,75,62,48,55,50,46,97,68,41,29.91,29.78,11,2,13,0.00
2013-9-17,60,54,49,56,51,48,99,89,67,30.03,29.77,14,1,14,0.33
2013-9-18,69,55,44,54,49,44,100,82,50,30.10,29.95,9,1,10,0.00
2013-9-19,77,53,43,52,46,41,95,78,31,29.97,29.81,11,1,11,0.00
2013-9-20,73,57,49,54,46,40,100,68,36,29.78,29.60,8,1,13,0.34
2013-9-21,58,51,47,55,50,47,100,96,80,29.87,29.66,7,0,7,0.13
2013-9-22,63,53,47,53,49,46,100,88,61,29.95,29.86,7,0,7,0.06
2013-9-23,64,55,49,58,52,49,100,88,73,29.99,29.94,13,1,14,0.00
2013-9-24,56,51,44,51,48,43,100,92,78,29.99,29.89,13,1,13,0.20
2013-9-25,53,45,41,46,42,39,98,90,64,30.06,29.90,13,1,13,0.10
2013-9-26,58,48,41,45,41,39,99,81,53,30.19,30.05,12,1,12,0.00
2013-9-27,63,48,36,47,42,36,100,79,43,30.23,30.09,10,1,12,0.00
2013-9-28,70,59,48,53,47,42,87,67,44,30.09,29.70,18,1,19,0.00
2013-9-29,64,54,50,56,52,49,100,93,60,29.82,29.68,18,1,18,1.01
2013-9-30,52,50,49,44,44,42,82,77,72,30.06,30.02,6,1,7,0.00
2013-10-1,57,48,40,46,43,38,98,83,57,30.18,30.04,15,1,15,0.00
2013-10-2,54,43,32,43,38,32,100,85,52,30.21,30.11,13,1,13,0.07
2013-10-3,56,45,39,42,40,37,99,82,57,30.37,30.21,10,1,11,0.03
2013-10-4,63,41,33,45,37,32,99,89,48,30.44,30.33,8,0,8,0.00
2013-10-5,74,59,43,48,35,27,66,41,25,30.32,30.13,6,2,18,0.00
2013-10-6,71,55,42,47,40,34,80,58,34,30.14,30.02,3,1,9,0.00
2013-10-7,58,50,43,47,40,33,81,68,53,30.15,30.00,5,1,15,0.00
2013-10-8,54,47,40,45,41,38,98,80,59,30.16,29.95,3,1,11,0.08
2013-10-9,56,45,36,42,40,36,100,82,54,29.97,29.90,3,1,9,0.00
2013-10-10,58,46,35,46,40,35,100,82,49,30.08,29.94,3,1,12,0.00
2013-10-11,58,48,35,46,42,35,100,81,63,30.14,30.05,9,1,10,0.00
2013-10-12,53,44,39,47,43,38,100,95,78,30.13,30.03,12,1,12,0.10
2013-10-13,56,44,36,47,41,36,100,91,67,30.25,30.13,10,1,10,0.00
2013-10-14,63,46,35,47,39,33,99,78,51,30.32,30.19,7,1,7,0.01
2013-10-15,67,52,38,38,33,29,81,51,26,30.25,30.09,19,2,26,0.00
2013-10-16,67,50,38,42,36,29,78,60,32,30.15,30.08,6,1,7,0.00
2013-10-17,68,49,38,47,39,35,89,70,45,30.19,30.08,6,1,7,0.00
2013-10-18,70,54,39,50,43,37,93,68,44,30.16,30.04,6,0,6,0.00
2013-10-19,71,54,42,50,41,33,75,63,44,30.15,30.07,6,1,6,0.00
2013-10-20,69,53,41,52,43,36,86,68,45,30.12,30.01,6,1,6,0.00
2013-10-21,73,55,42,51,42,37,86,63,41,30.08,29.95,5,1,6,0.00
2013-10-22,73,57,46,50,42,37,72,58,39,30.05,29.93,5,1,5,0.00
2013-10-23,70,55,43,49,41,36,78,61,44,30.01,29.92,6,1,6,0.00
2013-10-24,52,48,44,37,36,36,72,64,56,30.00,29.97,2,0,3,0.00
2013-10-25,68,52,42,48,39,33,76,60,43,30.20,30.08,2,0,5,0.00
2013-10-26,66,52,39,47,40,34,83,64,48,30.26,30.07,7,1,7,0.00
2013-10-27,57,45,39,47,40,36,97,83,65,30.08,29.76,18,2,18,0.16
2013-10-28,47,44,38,44,41,38,100,92,81,29.87,29.72,11,1,11,0.11
2013-10-29,56,42,31,44,38,31,100,86,57,30.08,29.87,5,0,6,0.00
2013-10-30,56,45,36,45,40,35,100,85,61,30.23,30.08,9,1,9,0.00
2013-10-31,57,44,39,45,40,37,94,85,62,30.31,30.22,4,0,5,0.00
2013-11-1,64,50,38,50,44,38,100,82,59,30.25,30.05,4,1,6,0.00
2013-11-2,50,45,39,48,41,33,100,87,75,30.19,29.91,11,2,11,0.21
2013-11-3,45,39,34,39,36,33,100,89,69,30.24,30.18,10,1,11,0.04
2013-11-4,45,37,33,41,36,33,100,97,83,30.27,30.19,4,0,6,0.01
2013-11-5,47,42,37,46,42,36,100,100,97,30.34,30.25,4,0,4,0.12
2013-11-6,54,47,43,51,47,43,100,98,88,30.34,30.17,6,0,6,0.00
2013-11-7,55,46,42,52,46,42,100,99,86,30.18,30.06,8,1,9,0.17
2013-11-8,46,39,33,43,39,33,100,99,89,30.22,30.11,6,0,6,0.01
2013-11-9,49,40,32,45,39,32,100,98,86,30.15,30.07,4,0,4,0.00
2013-11-10,53,44,37,48,42,37,100,95,82,30.14,30.05,4,0,4,0.01
2013-11-11,63,48,38,47,39,29,100,75,28,30.14,30.02,8,1,11,0.00
2013-11-12,62,52,47,50,43,29,99,76,29,30.37,30.11,5,1,12,0.00
2013-11-13,55,48,40,53,48,40,100,98,86,30.42,30.22,6,0,6,0.03
2013-11-14,44,41,39,44,41,39,100,100,93,30.23,30.09,7,0,7,0.03
2013-11-15,45,39,35,40,36,34,100,91,70,30.10,29.84,3,0,10,0.00
2013-11-16,46,41,34,43,38,34,100,91,76,29.92,29.79,6,1,12,0.00
2013-11-17,49,40,33,41,37,32,97,88,68,30.12,29.99,2,0,6,0.00
2013-11-18,46,41,35,44,40,34,100,94,87,30.09,29.94,4,0,4,0.01
2013-11-19,54,47,43,51,46,43,100,98,81,29.95,29.83,7,0,7,0.22
2013-11-20,46,44,39,46,44,39,100,100,97,30.07,29.85,7,0,7,0.24
2013-11-21,39,30,23,34,27,18,100,90,53,30.53,30.18,2,0,9,0.01
2013-11-22,45,35,23,31,23,18,92,63,46,30.55,30.35,4,1,12,0.00
2013-11-23,53,41,32,34,25,19,69,54,37,30.36,30.15,6,1,6,0.00
2013-11-24,50,40,31,35,26,19,72,58,32,30.31,30.17,7,1,7,0.00
2013-11-25,47,38,28,35,28,23,84,68,59,30.40,30.31,3,0,4,0.00
2013-11-26,46,37,31,36,31,26,87,78,67,30.34,30.17,4,0,4,0.00
2013-11-27,56,41,34,41,35,32,91,78,48,30.11,29.94,4,0,6,0.00
2013-11-28,51,41,34,41,35,31,91,80,66,30.16,30.01,4,0,4,0.00
2013-11-29,49,40,32,41,36,31,96,85,69,30.38,30.23,1,0,7,0.00
2013-11-30,51,42,34,43,38,33,98,85,71,30.44,30.35,1,0,5,0.00
2013-12-1,53,43,38,46,41,37,100,93,74,30.45,30.23,4,0,7,0.00
2013-12-2,47,41,32,47,40,30,100,97,90,30.23,29.95,10,2,15,0.44
2013-12-3,36,31,27,32,28,18,100,90,68,30.17,30.05,8,1,9,0.00
2013-12-4,30,23,16,22,18,15,97,80,60,30.28,30.16,12,1,12,0.00
2013-12-5,29,21,13,22,17,12,94,85,71,30.33,30.22,1,0,6,0.00
2013-12-6,32,26,22,29,24,18,100,91,78,30.23,29.90,5,0,5,0.00
2013-12-7,27,21,11,27,19,9,100,94,82,30.40,29.93,0,0,0,0.00
2013-12-8,20,12,6,16,10,4,99,93,83,30.66,30.40,3,0,3,0.00